This is the latest recevied weather packets stored in our database for station/object N0ZO-13. If no packets are shown the sender has not sent any weather packets the latest 10 day(s).
| Time | Temp. | Humidity | Pressure | Rain* | Wind** | Luminosity | Snow |
|---|---|---|---|---|---|---|---|
| 1777253785 | 21.67° C | 77% | 1007.9 hPa | 0 mm | - | 0 W/m² | - |
| 1777251983 | 22.78° C | 75% | 1007.2 hPa | 0 mm | - | 0 W/m² | - |
| 1777249576 | 24.44° C | 70% | 1006.7 hPa | 0 mm | - | 0 W/m² | - |
| 1777245381 | 26.67° C | 63% | 1006.6 hPa | 0 mm | - | 0 W/m² | - |
| 1777242987 | 27.22° C | 62% | 1006.1 hPa | 0 mm | - | 10 W/m² | - |
| 1777241790 | 27.78° C | 57% | 1006.2 hPa | 0 mm | - | 10 W/m² | - |
| 1777237579 | 27.78° C | 57% | 1006 hPa | 0 mm | - | 43 W/m² | - |
| 1777234581 | 28.33° C | 61% | 1006.2 hPa | 0 mm | - | 184 W/m² | - |
| 1777226175 | 28.33° C | 62% | 1007.7 hPa | 0 mm | - | 54 W/m² | - |
| 1777224979 | 27.78° C | 66% | 1007.8 hPa | 0 mm | - | 100 W/m² | - |
| 1777224387 | 28.33° C | 64% | 1007.9 hPa | 0 mm | - | 54 W/m² | - |
| 1777223190 | 27.78° C | 67% | 1007.9 hPa | 0 mm | - | 218 W/m² | - |
| 1777217185 | 23.89° C | 81% | 1008.3 hPa | 0 mm | - | 100 W/m² | - |
| 1777216578 | 23.33° C | 82% | 1008.1 hPa | 0 mm | - | 140 W/m² | - |
| 1777208177 | 17.78° C | 98% | 1007.4 hPa | 0 mm | - | 10 W/m² | - |
| 1777204620 | 16.67° C | 98% | 1006.8 hPa | 0 mm | - | 0 W/m² | - |
| 1777203380 | 16.11° C | 98% | 1006.6 hPa | 0 mm | - | 0 W/m² | - |
| 1777200379 | 16.11° C | 98% | 1005.6 hPa | 0 mm | - | 0 W/m² | - |
| 1777197985 | 16.67° C | 97% | 1004.9 hPa | 0 mm | - | 0 W/m² | - |
| 1777196809 | 16.67° C | 97% | 1005 hPa | 0 mm | - | 0 W/m² | - |
| 1777193181 | 16.67° C | 97% | 1004.8 hPa | 0 mm | - | 0 W/m² | - |
| 1777190179 | 16.67° C | 96% | 1004.5 hPa | 0 mm | - | 0 W/m² | - |
| 1777189608 | 17.22° C | 96% | 1004.9 hPa | 0 mm | - | 0 W/m² | - |
| 1777188982 | 17.22° C | 96% | 1004.9 hPa | 0 mm | - | 0 W/m² | - |
* Rain latest hour (hover to see other rain measurements)
** Current wind speed in m/s (hover to see current wind gust speed)